Time;durP1;ratioP1;P1;durP2;ratioP2;P2;SDS_P1;SDS_P2;PMS_P1;PMS_P2;Temp;Humidity;BMP_temperature;BMP_pressure;BME280_temperature;BME280_humidity;BME280_pressure;Samples;Min_cycle;Max_cycle;Signal;HPM_P1;HPM_P2
2022/12/19 00:01:30;;;;;;;38.25;22.52;;;0.80;99.90;;;;;;6023449;23;20098;-86
2022/12/19 00:03:59;;;;;;;39.63;22.15;;;0.80;99.90;;;;;;5998850;23;20352;-88
2022/12/19 00:06:26;;;;;;;40.58;23.65;;;0.80;99.90;;;;;;6000385;23;20183;-86
2022/12/19 00:08:53;;;;;;;42.60;23.38;;;0.90;99.90;;;;;;6001504;23;20019;-86
2022/12/19 00:11:21;;;;;;;37.00;22.52;;;0.90;99.90;;;;;;6024742;23;20349;-87
2022/12/19 00:13:47;;;;;;;43.33;24.38;;;0.90;99.90;;;;;;6001918;23;20015;-86
2022/12/19 00:16:32;;;;;;;37.65;22.23;;;0.90;99.90;;;;;;6003590;23;20083;-86
2022/12/19 00:19:09;;;;;;;41.67;23.27;;;0.90;99.90;;;;;;6025241;23;20019;-86
2022/12/19 00:21:35;;;;;;;40.53;23.50;;;0.90;99.90;;;;;;6001473;23;20015;-86
2022/12/19 00:24:06;;;;;;;42.58;23.23;;;1.00;99.90;;;;;;6001334;23;20041;-86
2022/12/19 00:26:36;;;;;;;43.22;24.10;;;0.90;99.90;;;;;;6001361;23;20420;-86
2022/12/19 00:29:05;;;;;;;43.15;23.13;;;1.00;99.90;;;;;;5999694;23;20015;-85
2022/12/19 00:31:33;;;;;;;42.22;23.75;;;1.00;99.90;;;;;;6001212;23;20536;-86
2022/12/19 00:33:59;;;;;;;38.75;21.98;;;1.00;99.90;;;;;;6001363;23;20924;-85
2022/12/19 00:36:27;;;;;;;45.08;23.65;;;1.00;99.90;;;;;;6024970;23;20075;-86
2022/12/19 00:38:55;;;;;;;41.17;22.90;;;1.10;99.90;;;;;;6000852;23;20029;-86
2022/12/19 00:41:30;;;;;;;41.15;22.58;;;1.10;99.90;;;;;;6001345;23;20086;-86
2022/12/19 00:44:08;;;;;;;43.15;22.92;;;1.10;99.90;;;;;;5999355;23;20030;-86
2022/12/19 00:46:35;;;;;;;44.78;24.10;;;1.10;99.90;;;;;;6000476;23;20023;-86
2022/12/19 00:49:02;;;;;;;41.38;24.08;;;1.10;99.90;;;;;;6025050;23;20317;-85
2022/12/19 00:51:30;;;;;;;44.47;23.50;;;1.20;99.90;;;;;;6001469;23;20517;-84
2022/12/19 00:53:57;;;;;;;38.28;22.98;;;1.20;99.90;;;;;;6024101;23;20162;-86
2022/12/19 00:56:25;;;;;;;41.97;23.73;;;1.20;99.90;;;;;;6023669;23;20236;-85
2022/12/19 00:58:51;;;;;;;41.90;22.50;;;1.20;99.90;;;;;;6000065;23;20019;-86
2022/12/19 01:01:33;;;;;;;41.08;23.48;;;1.20;99.90;;;;;;6022245;23;20078;-86
2022/12/19 01:04:00;;;;;;;40.15;20.85;;;1.20;99.90;;;;;;6000357;23;20568;-85
2022/12/19 01:06:26;;;;;;;42.40;22.48;;;1.30;99.90;;;;;;6000148;23;20432;-85
2022/12/19 01:08:55;;;;;;;38.72;21.27;;;1.30;99.90;;;;;;5999051;23;20026;-86
2022/12/19 01:12:44;;;;;;;41.00;22.30;;;1.30;99.90;;;;;;6023284;23;20019;-86
2022/12/19 01:14:06;;;;;;;41.25;23.42;;;1.30;99.90;;;;;;6021162;23;20026;-86
2022/12/19 01:16:32;;;;;;;37.80;21.63;;;1.40;99.90;;;;;;6022929;23;20102;-86
2022/12/19 01:18:58;;;;;;;40.85;23.80;;;1.40;99.90;;;;;;6024323;23;20054;-85
2022/12/19 01:21:23;;;;;;;40.65;22.70;;;1.40;99.90;;;;;;6000613;23;20023;-86
2022/12/19 01:23:49;;;;;;;39.05;21.85;;;1.50;99.90;;;;;;6000538;23;20089;-84
2022/12/19 01:26:15;;;;;;;42.42;23.80;;;1.50;99.90;;;;;;6001437;23;20425;-85
2022/12/19 01:28:40;;;;;;;42.22;23.17;;;1.50;99.90;;;;;;5996326;23;20341;-86
2022/12/19 01:31:06;;;;;;;41.50;22.38;;;1.50;99.90;;;;;;6022174;23;20019;-85
2022/12/19 01:33:32;;;;;;;39.60;22.15;;;1.60;99.90;;;;;;6024981;23;20098;-84
2022/12/19 01:36:00;;;;;;;38.83;22.50;;;1.60;99.90;;;;;;6000542;23;20038;-83
2022/12/19 01:38:26;;;;;;;38.10;22.38;;;1.60;99.90;;;;;;6022400;23;20098;-85
2022/12/19 01:40:54;;;;;;;38.50;22.45;;;1.60;99.90;;;;;;6024737;23;20077;-84
2022/12/19 01:43:20;;;;;;;41.25;22.63;;;1.60;99.90;;;;;;6000385;23;20023;-84
2022/12/19 01:45:49;;;;;;;38.25;22.00;;;1.70;99.90;;;;;;6021072;23;20403;-84
2022/12/19 01:48:27;;;;;;;39.10;23.60;;;1.70;99.90;;;;;;6000970;23;20106;-84
2022/12/19 01:50:59;;;;;;;42.53;21.60;;;1.70;99.90;;;;;;6000175;23;20015;-85
2022/12/19 01:53:28;;;;;;;39.45;21.80;;;1.70;99.90;;;;;;5999890;23;20019;-84
2022/12/19 01:55:54;;;;;;;36.72;21.38;;;1.80;99.90;;;;;;6023080;23;20487;-84
2022/12/19 01:58:21;;;;;;;39.72;22.27;;;1.80;99.90;;;;;;5999863;23;20023;-84
2022/12/19 02:00:47;;;;;;;37.70;22.90;;;1.80;99.90;;;;;;5996817;23;20030;-84
2022/12/19 02:03:22;;;;;;;36.13;22.23;;;1.90;99.90;;;;;;5976959;23;20027;-84
2022/12/19 02:05:49;;;;;;;42.85;22.38;;;1.80;99.90;;;;;;5999127;23;20110;-84
2022/12/19 02:08:15;;;;;;;41.75;23.23;;;1.90;99.90;;;;;;5999539;23;20057;-84
2022/12/19 02:10:41;;;;;;;43.45;22.23;;;1.90;99.90;;;;;;5976515;23;20046;-84
2022/12/19 02:13:07;;;;;;;38.13;22.08;;;1.90;99.90;;;;;;5999786;23;20019;-85
2022/12/19 02:15:51;;;;;;;42.10;23.63;;;1.90;99.90;;;;;;5974981;23;20373;-84
2022/12/19 02:18:36;;;;;;;39.03;22.90;;;1.90;99.90;;;;;;5977778;23;20049;-85
2022/12/19 02:21:11;;;;;;;40.03;22.67;;;1.90;99.90;;;;;;5999705;23;20019;-85
2022/12/19 02:23:46;;;;;;;44.20;22.95;;;1.90;99.90;;;;;;6001219;23;20476;-84
2022/12/19 02:26:25;;;;;;;43.15;23.58;;;1.90;99.90;;;;;;6001778;23;20016;-83
2022/12/19 02:29:17;;;;;;;46.60;23.88;;;1.90;99.90;;;;;;5977372;23;20019;-84
2022/12/19 02:32:00;;;;;;;43.58;23.25;;;1.90;99.90;;;;;;5979073;23;20034;-84
2022/12/19 02:34:55;;;;;;;44.95;23.05;;;1.90;99.90;;;;;;5978586;23;20021;-84
2022/12/19 02:37:31;;;;;;;52.08;23.90;;;1.90;99.90;;;;;;5978174;23;20155;-84
2022/12/19 02:40:09;;;;;;;47.28;25.27;;;1.80;99.90;;;;;;5980163;23;20019;-84
2022/12/19 02:42:40;;;;;;;47.35;26.10;;;1.90;99.90;;;;;;6003172;23;20059;-85
2022/12/19 02:45:11;;;;;;;50.08;26.08;;;1.80;99.90;;;;;;6001066;23;20345;-84
2022/12/19 02:47:38;;;;;;;51.28;25.83;;;1.80;99.90;;;;;;5979133;23;20023;-83
2022/12/19 02:50:06;;;;;;;52.63;26.33;;;1.90;99.90;;;;;;5978906;23;20541;-84
2022/12/19 02:52:31;;;;;;;52.35;25.90;;;1.90;99.90;;;;;;5978266;23;20107;-84
2022/12/19 02:55:05;;;;;;;50.85;27.75;;;1.90;99.90;;;;;;6002059;23;20331;-85
2022/12/19 02:57:45;;;;;;;57.13;27.42;;;1.90;99.90;;;;;;6002255;23;20122;-85
2022/12/19 03:00:11;;;;;;;52.85;28.27;;;1.90;99.90;;;;;;6000687;23;20025;-85
2022/12/19 03:02:57;;;;;;;50.17;28.10;;;1.90;99.90;;;;;;6022351;23;20082;-85
2022/12/19 03:05:46;;;;;;;53.22;28.13;;;1.90;99.90;;;;;;6001080;23;20026;-85
2022/12/19 03:08:36;;;;;;;56.13;28.92;;;1.90;99.90;;;;;;6026101;23;20062;-85
2022/12/19 03:11:10;;;;;;;52.92;27.60;;;1.90;99.90;;;;;;6001422;23;20452;-85
2022/12/19 03:13:50;;;;;;;53.40;28.40;;;2.00;99.90;;;;;;6001625;23;20072;-85
2022/12/19 03:16:16;;;;;;;54.60;27.25;;;2.00;99.90;;;;;;6023996;23;20163;-86
2022/12/19 03:18:45;;;;;;;52.05;27.88;;;2.00;99.90;;;;;;6003443;23;20201;-85
2022/12/19 03:21:30;;;;;;;63.65;28.85;;;2.00;99.90;;;;;;6001720;23;20346;-84
2022/12/19 03:23:57;;;;;;;63.20;30.02;;;2.00;99.90;;;;;;6025917;23;20046;-85
2022/12/19 03:26:29;;;;;;;63.10;30.27;;;2.10;99.90;;;;;;6001150;23;20022;-85
2022/12/19 03:29:05;;;;;;;57.55;29.52;;;2.10;99.90;;;;;;6000749;23;20011;-86
2022/12/19 03:31:34;;;;;;;62.40;29.77;;;2.10;99.90;;;;;;6024942;23;20023;-84
2022/12/19 03:34:17;;;;;;;58.55;28.30;;;2.10;99.90;;;;;;6025307;23;20146;-86
2022/12/19 03:36:47;;;;;;;66.82;30.40;;;2.20;99.90;;;;;;6001441;23;20121;-86
2022/12/19 03:39:14;;;;;;;64.18;30.80;;;2.20;99.90;;;;;;6002312;23;20030;-85
2022/12/19 03:44:34;;;;;;;63.80;30.58;;;2.20;99.90;;;;;;6022982;23;20064;-86
2022/12/19 03:47:11;;;;;;;62.35;30.75;;;2.20;99.90;;;;;;6001764;23;20027;-86
2022/12/19 03:49:37;;;;;;;68.50;31.05;;;2.30;99.90;;;;;;6000831;23;20022;-86
2022/12/19 03:52:03;;;;;;;69.32;32.13;;;2.30;99.90;;;;;;6002385;23;20093;-85
2022/12/19 03:54:34;;;;;;;64.85;32.90;;;2.40;99.90;;;;;;6024604;23;20015;-86
2022/12/19 03:57:15;;;;;;;61.05;32.80;;;2.50;99.90;;;;;;6025015;23;20019;-84
2022/12/19 04:00:01;;;;;;;64.90;33.42;;;2.50;99.90;;;;;;6000788;23;20054;-85
2022/12/19 04:02:33;;;;;;;76.07;34.25;;;2.50;99.90;;;;;;6000378;23;20524;-85
2022/12/19 04:05:04;;;;;;;70.50;32.38;;;2.60;99.90;;;;;;6000749;23;20019;-85
2022/12/19 04:07:32;;;;;;;71.80;33.25;;;2.70;99.90;;;;;;6025272;23;20054;-85
2022/12/19 04:10:00;;;;;;;65.43;30.45;;;2.70;99.90;;;;;;6023890;23;20016;-86
2022/12/19 04:12:35;;;;;;;65.80;32.70;;;2.70;99.90;;;;;;6001864;23;20019;-85
2022/12/19 04:15:05;;;;;;;69.90;35.05;;;2.80;99.90;;;;;;5998931;23;20019;-85
2022/12/19 04:17:47;;;;;;;72.13;35.58;;;2.70;99.90;;;;;;6000150;23;20050;-86
2022/12/19 04:20:19;;;;;;;73.97;33.85;;;2.70;99.90;;;;;;6000667;23;20066;-84
2022/12/19 04:23:07;;;;;;;74.80;35.05;;;2.80;99.90;;;;;;6002075;23;20061;-85
2022/12/19 04:25:38;;;;;;;76.22;34.05;;;2.80;99.90;;;;;;6000139;23;20054;-85
2022/12/19 04:28:19;;;;;;;74.65;33.45;;;2.80;99.90;;;;;;6001500;23;20015;-84
2022/12/19 04:30:47;;;;;;;71.15;33.92;;;2.80;99.90;;;;;;6022121;23;20420;-85
2022/12/19 04:33:12;;;;;;;72.35;35.72;;;2.80;99.90;;;;;;6025344;23;20013;-85
2022/12/19 04:35:38;;;;;;;75.93;34.53;;;2.90;99.90;;;;;;6000335;23;20593;-85
2022/12/19 04:38:04;;;;;;;74.35;34.80;;;2.90;99.90;;;;;;6025358;23;20041;-85
2022/12/19 04:40:30;;;;;;;71.57;32.95;;;2.90;99.90;;;;;;5999550;23;20207;-85
2022/12/19 04:42:56;;;;;;;69.90;33.60;;;3.00;99.90;;;;;;6000700;23;20114;-85
2022/12/19 04:45:21;;;;;;;72.22;35.05;;;3.00;99.90;;;;;;6021024;23;20019;-85
2022/12/19 04:47:50;;;;;;;71.95;35.08;;;3.00;99.90;;;;;;6000845;23;20446;-85
2022/12/19 04:50:15;;;;;;;75.07;38.75;;;3.00;99.90;;;;;;5999277;23;20071;-85
2022/12/19 04:52:41;;;;;;;85.05;39.38;;;3.00;99.90;;;;;;6000499;23;20398;-84
2022/12/19 04:55:07;;;;;;;84.60;37.80;;;3.00;99.90;;;;;;6025447;23;20046;-85
2022/12/19 04:57:33;;;;;;;75.88;37.55;;;3.00;99.90;;;;;;5999543;23;20019;-85
2022/12/19 04:59:59;;;;;;;82.45;36.67;;;3.10;99.90;;;;;;5998172;23;20071;-85
2022/12/19 05:02:24;;;;;;;86.75;37.05;;;3.00;99.90;;;;;;5998959;23;20102;-85
2022/12/19 05:04:50;;;;;;;80.43;37.47;;;3.10;99.90;;;;;;6000070;23;20102;-85
2022/12/19 05:07:19;;;;;;;85.65;37.97;;;3.10;99.90;;;;;;5999618;23;20015;-85
2022/12/19 05:09:44;;;;;;;72.57;33.80;;;3.10;99.90;;;;;;6023969;23;20071;-85
2022/12/19 05:12:10;;;;;;;75.47;36.13;;;3.10;99.90;;;;;;6000627;23;20381;-85
2022/12/19 05:14:36;;;;;;;77.03;38.08;;;3.20;99.90;;;;;;5998288;23;20015;-85
2022/12/19 05:17:02;;;;;;;80.90;37.17;;;3.20;99.90;;;;;;6000972;23;20674;-86
2022/12/19 05:19:28;;;;;;;88.28;38.10;;;3.20;99.90;;;;;;6001453;23;20484;-85
2022/12/19 05:21:53;;;;;;;75.30;35.88;;;3.20;99.90;;;;;;6000258;23;20019;-85
2022/12/19 05:24:19;;;;;;;71.43;34.50;;;3.10;99.90;;;;;;6000230;23;20034;-85
2022/12/19 05:26:46;;;;;;;73.30;34.75;;;3.20;99.90;;;;;;6002026;23;20102;-85
2022/12/19 05:29:12;;;;;;;70.95;33.92;;;3.30;99.90;;;;;;5999437;23;20019;-85
2022/12/19 05:31:37;;;;;;;87.00;36.78;;;3.30;99.90;;;;;;6025012;23;20019;-84
2022/12/19 05:34:03;;;;;;;74.78;33.72;;;3.30;99.90;;;;;;6024191;23;20015;-85
2022/12/19 05:36:29;;;;;;;80.97;35.45;;;3.30;99.90;;;;;;5999767;23;20138;-85
2022/12/19 05:38:54;;;;;;;72.03;34.53;;;3.40;99.90;;;;;;6000277;23;20021;-85
2022/12/19 05:41:20;;;;;;;82.85;35.33;;;3.40;99.90;;;;;;5999762;23;20343;-85
2022/12/19 05:43:53;;;;;;;67.20;34.03;;;3.40;99.90;;;;;;6000903;23;20022;-85
2022/12/19 05:46:19;;;;;;;76.05;35.65;;;3.50;99.90;;;;;;6023117;23;20019;-85
2022/12/19 05:48:45;;;;;;;73.43;33.53;;;3.40;99.90;;;;;;6025125;23;20011;-86
2022/12/19 05:51:11;;;;;;;74.55;35.17;;;3.50;99.90;;;;;;6023473;23;20074;-85
2022/12/19 05:53:41;;;;;;;72.75;33.83;;;3.60;99.90;;;;;;6000938;23;20357;-85
2022/12/19 05:56:06;;;;;;;75.50;35.55;;;3.60;99.90;;;;;;6024113;23;20072;-85
2022/12/19 05:58:35;;;;;;;71.97;34.10;;;3.60;99.90;;;;;;6022552;23;20386;-85
2022/12/19 06:01:19;;;;;;;72.40;34.17;;;3.60;99.90;;;;;;5998109;23;20027;-84
2022/12/19 06:03:44;;;;;;;73.88;33.35;;;3.60;99.90;;;;;;6025512;23;20095;-86
2022/12/19 06:06:13;;;;;;;64.93;30.13;;;3.60;99.90;;;;;;6024092;23;20127;-85
2022/12/19 06:08:39;;;;;;;67.75;33.13;;;3.60;99.90;;;;;;6000320;23;20042;-85
2022/12/19 06:11:06;;;;;;;68.15;31.88;;;3.70;99.90;;;;;;5999378;23;20420;-84
2022/12/19 06:13:32;;;;;;;59.97;30.25;;;3.70;99.90;;;;;;5999640;23;20019;-85
2022/12/19 06:16:08;;;;;;;66.07;29.42;;;3.70;99.90;;;;;;5997891;23;20015;-84
2022/12/19 06:18:34;;;;;;;63.60;29.70;;;3.80;99.90;;;;;;6024693;23;20011;-85
2022/12/19 06:21:05;;;;;;;65.20;29.98;;;3.80;99.90;;;;;;5999290;23;20019;-84
2022/12/19 06:23:33;;;;;;;62.33;29.55;;;3.80;99.90;;;;;;6000101;23;20019;-85
2022/12/19 06:26:00;;;;;;;67.82;31.30;;;3.90;99.90;;;;;;6001569;23;20158;-86
2022/12/19 06:28:27;;;;;;;61.50;29.13;;;4.00;99.90;;;;;;6001536;23;20023;-85
2022/12/19 06:30:58;;;;;;;69.57;30.33;;;4.00;99.90;;;;;;6021982;23;20429;-84
2022/12/19 06:33:28;;;;;;;66.72;28.30;;;4.00;99.90;;;;;;6022884;23;20533;-84
2022/12/19 06:36:02;;;;;;;60.55;27.83;;;4.10;99.90;;;;;;6000425;23;20067;-85
2022/12/19 06:38:28;;;;;;;56.70;28.10;;;4.20;99.90;;;;;;5999398;23;20468;-84
2022/12/19 06:43:40;;;;;;;56.45;26.33;;;4.30;99.90;;;;;;6022828;23;20095;-84
2022/12/19 06:46:06;;;;;;;50.45;25.58;;;4.40;99.90;;;;;;5998380;23;20395;-84
2022/12/19 06:48:31;;;;;;;53.47;25.00;;;4.30;99.90;;;;;;5999953;23;20019;-85
2022/12/19 06:50:57;;;;;;;51.00;25.35;;;4.30;99.90;;;;;;6022940;23;20034;-85
2022/12/19 06:53:26;;;;;;;54.80;25.27;;;4.40;99.90;;;;;;6023304;23;20023;-84
2022/12/19 06:55:55;;;;;;;48.15;23.60;;;4.40;99.90;;;;;;5998030;23;20574;-85
2022/12/19 06:58:21;;;;;;;48.28;24.58;;;4.40;99.90;;;;;;5999505;23;20016;-85
2022/12/19 07:00:46;;;;;;;55.90;25.35;;;4.50;99.90;;;;;;5997207;23;20334;-86
2022/12/19 07:03:17;;;;;;;49.15;24.98;;;4.50;99.90;;;;;;5976540;23;20485;-84
2022/12/19 07:05:43;;;;;;;58.10;23.48;;;4.50;99.90;;;;;;5975518;23;20357;-85
2022/12/19 07:08:08;;;;;;;48.38;23.40;;;4.50;99.90;;;;;;5977317;23;20016;-85
2022/12/19 07:10:34;;;;;;;47.10;21.83;;;4.50;99.90;;;;;;5977901;23;20872;-85
2022/12/19 07:13:00;;;;;;;53.08;23.75;;;4.60;99.90;;;;;;5978850;23;20030;-84
2022/12/19 07:15:26;;;;;;;45.78;22.40;;;4.60;99.90;;;;;;5999093;23;20110;-85
2022/12/19 07:17:52;;;;;;;44.17;22.00;;;4.70;99.90;;;;;;5978164;23;20023;-85
2022/12/19 07:20:19;;;;;;;45.55;22.52;;;4.60;99.90;;;;;;5978149;23;20462;-85
2022/12/19 07:22:46;;;;;;;43.58;22.05;;;4.70;99.90;;;;;;5978385;23;20015;-85
2022/12/19 07:25:12;;;;;;;45.20;22.00;;;4.70;99.90;;;;;;5979937;23;20019;-85
2022/12/19 07:27:38;;;;;;;41.95;21.23;;;4.70;99.90;;;;;;5978800;23;20488;-84
2022/12/19 07:30:06;;;;;;;45.30;22.00;;;4.80;99.90;;;;;;5999090;23;20051;-84
2022/12/19 07:32:32;;;;;;;43.05;22.08;;;4.80;99.90;;;;;;5977357;23;20022;-85
2022/12/19 07:34:58;;;;;;;49.15;22.80;;;4.80;99.90;;;;;;5977145;23;20341;-85
2022/12/19 07:37:24;;;;;;;41.83;20.92;;;4.80;99.90;;;;;;5999917;23;20212;-85
2022/12/19 07:39:51;;;;;;;34.55;18.23;;;4.90;99.90;;;;;;6001197;23;20016;-84
2022/12/19 07:42:17;;;;;;;36.47;18.95;;;4.90;99.90;;;;;;5976796;23;20103;-84
2022/12/19 07:44:42;;;;;;;42.00;21.85;;;5.00;99.90;;;;;;6000223;23;20051;-85
2022/12/19 07:47:08;;;;;;;35.78;20.20;;;5.00;99.90;;;;;;5976674;23;20023;-85
2022/12/19 07:49:34;;;;;;;40.63;20.35;;;5.00;99.90;;;;;;5978930;23;20292;-84
2022/12/19 07:51:59;;;;;;;38.53;20.05;;;5.00;99.90;;;;;;6002317;23;20023;-84
2022/12/19 07:54:25;;;;;;;42.75;21.77;;;5.00;99.90;;;;;;6001226;23;20661;-84
2022/12/19 07:56:51;;;;;;;37.75;20.25;;;5.10;99.90;;;;;;6001354;23;20047;-84
2022/12/19 07:59:17;;;;;;;43.53;20.35;;;5.10;99.90;;;;;;5976591;23;20329;-85
2022/12/19 08:01:42;;;;;;;36.25;19.17;;;5.10;99.90;;;;;;5987567;23;20023;-84
2022/12/19 08:04:08;;;;;;;37.38;20.05;;;5.20;99.90;;;;;;6025601;23;20027;-85
2022/12/19 08:06:34;;;;;;;43.08;21.30;;;5.20;99.90;;;;;;6025577;23;20023;-84
2022/12/19 08:08:59;;;;;;;42.05;20.95;;;5.20;99.90;;;;;;6026451;23;20389;-84
2022/12/19 08:11:26;;;;;;;43.83;21.23;;;5.20;99.90;;;;;;6002119;23;20015;-84
2022/12/19 08:13:58;;;;;;;37.15;19.58;;;5.30;99.90;;;;;;6022955;23;20019;-84
2022/12/19 08:16:26;;;;;;;40.75;19.42;;;5.30;99.90;;;;;;6000436;23;20453;-84
2022/12/19 08:18:51;;;;;;;38.38;20.52;;;5.30;99.90;;;;;;6024175;23;20294;-84
2022/12/19 08:21:17;;;;;;;40.63;21.23;;;5.40;99.90;;;;;;6023267;23;20034;-84
2022/12/19 08:23:44;;;;;;;39.20;19.73;;;5.30;99.90;;;;;;6000213;23;20019;-84
2022/12/19 08:26:13;;;;;;;36.25;18.30;;;5.40;99.90;;;;;;5998710;23;20349;-85
2022/12/19 08:28:39;;;;;;;36.80;19.30;;;5.50;99.90;;;;;;6022382;23;20015;-84
2022/12/19 08:31:09;;;;;;;37.47;19.58;;;5.40;99.90;;;;;;5998191;23;20382;-84
2022/12/19 08:33:36;;;;;;;33.83;18.77;;;5.50;99.90;;;;;;6024366;23;20087;-85
2022/12/19 08:36:13;;;;;;;34.67;18.90;;;5.60;99.90;;;;;;6023736;23;20025;-84
2022/12/19 08:38:39;;;;;;;34.92;18.92;;;5.50;99.90;;;;;;6022950;23;20196;-84
2022/12/19 08:41:05;;;;;;;39.70;19.98;;;5.60;99.90;;;;;;6000040;23;20203;-84
2022/12/19 08:43:31;;;;;;;30.98;18.15;;;5.60;99.90;;;;;;5997874;23;20029;-84
2022/12/19 08:45:57;;;;;;;36.45;19.35;;;5.70;99.90;;;;;;6018580;23;20241;-85
2022/12/19 08:48:23;;;;;;;35.05;18.70;;;5.70;99.90;;;;;;6021758;23;20019;-83
2022/12/19 08:50:57;;;;;;;39.90;19.25;;;5.80;99.90;;;;;;5998255;23;20075;-85
2022/12/19 08:53:25;;;;;;;30.70;17.35;;;5.80;99.90;;;;;;5999734;23;20095;-85
2022/12/19 08:55:55;;;;;;;36.20;19.75;;;5.90;99.90;;;;;;6023007;23;20071;-84
2022/12/19 08:58:24;;;;;;;36.10;20.33;;;5.90;99.90;;;;;;6023619;23;20050;-85
2022/12/19 09:00:54;;;;;;;35.90;19.42;;;6.00;99.90;;;;;;6020868;23;20449;-84
2022/12/19 09:03:21;;;;;;;33.53;18.95;;;6.00;99.90;;;;;;5976553;23;20031;-84
2022/12/19 09:05:56;;;;;;;31.42;18.02;;;6.00;99.90;;;;;;5976310;23;20050;-85
2022/12/19 09:08:23;;;;;;;30.48;18.48;;;6.10;99.90;;;;;;5976531;23;20094;-85
2022/12/19 09:10:49;;;;;;;34.55;19.27;;;6.10;99.90;;;;;;6000116;23;20051;-84
2022/12/19 09:13:15;;;;;;;41.05;20.63;;;6.10;99.90;;;;;;6000394;23;20046;-85
2022/12/19 09:15:40;;;;;;;30.20;19.20;;;6.20;99.90;;;;;;5974928;23;20026;-84
2022/12/19 09:18:06;;;;;;;37.67;19.60;;;6.20;99.90;;;;;;6001578;23;20030;-84
2022/12/19 09:20:32;;;;;;;34.63;18.70;;;6.30;99.90;;;;;;5976830;23;20030;-85
2022/12/19 09:22:57;;;;;;;35.78;19.48;;;6.30;99.90;;;;;;5999675;23;20015;-84
2022/12/19 09:25:26;;;;;;;30.77;18.27;;;6.40;99.90;;;;;;5999919;23;20453;-85
2022/12/19 09:27:51;;;;;;;35.03;19.90;;;6.40;99.90;;;;;;6000583;23;20305;-84
2022/12/19 09:30:19;;;;;;;36.72;20.17;;;6.40;99.90;;;;;;5996989;23;20410;-84
2022/12/19 09:32:45;;;;;;;33.95;18.88;;;6.40;99.90;;;;;;6000301;23;20210;-84
2022/12/19 09:35:10;;;;;;;35.78;20.00;;;6.50;99.90;;;;;;5998913;23;20152;-84
2022/12/19 09:37:36;;;;;;;39.00;20.65;;;6.50;99.90;;;;;;6000444;23;20019;-84
2022/12/19 09:40:02;;;;;;;38.95;22.27;;;6.50;99.90;;;;;;5976309;23;20078;-85
2022/12/19 09:42:50;;;;;;;39.95;22.50;;;6.60;99.90;;;;;;5975851;23;20011;-84
2022/12/19 09:45:45;;;;;;;37.47;21.75;;;6.60;99.90;;;;;;5997163;23;20523;-85
2022/12/19 09:48:13;;;;;;;38.75;22.45;;;6.70;99.90;;;;;;5976477;23;20485;-84
2022/12/19 09:51:23;;;;;;;38.30;21.75;;;6.80;99.90;;;;;;5975812;23;20022;-83
2022/12/19 09:54:11;;;;;;;34.17;20.75;;;6.80;99.90;;;;;;5887509;24;20472;-85
2022/12/19 09:56:40;;;;;;;39.35;21.65;;;6.80;99.90;;;;;;5860992;24;20204;-84
2022/12/19 09:59:27;;;;;;;36.92;20.92;;;6.90;99.90;;;;;;5955900;23;20023;-84
2022/12/19 10:02:15;;;;;;;38.20;22.27;;;6.90;99.90;;;;;;5987982;23;20027;-85
2022/12/19 10:04:48;;;;;;;39.75;22.75;;;7.00;99.90;;;;;;6023976;23;20313;-85
2022/12/19 10:07:17;;;;;;;36.83;21.95;;;7.00;99.90;;;;;;6000549;23;20130;-85
2022/12/19 10:09:42;;;;;;;37.03;21.45;;;7.10;99.90;;;;;;5999804;23;20017;-84
2022/12/19 10:12:28;;;;;;;39.30;22.42;;;7.10;99.90;;;;;;6000172;23;20098;-82
2022/12/19 10:14:57;;;;;;;39.10;21.95;;;7.20;99.90;;;;;;6021989;23;20046;-85
2022/12/19 10:17:47;;;;;;;35.92;21.27;;;7.20;99.90;;;;;;6023398;23;20387;-84
2022/12/19 10:20:26;;;;;;;38.95;21.70;;;7.20;99.90;;;;;;6022663;23;20314;-84
2022/12/19 10:23:19;;;;;;;41.40;22.77;;;7.20;99.90;;;;;;5998889;23;20015;-85
2022/12/19 10:26:13;;;;;;;39.03;22.58;;;7.30;99.90;;;;;;6021722;23;20023;-84
2022/12/19 10:29:01;;;;;;;36.85;21.20;;;7.30;99.90;;;;;;6022870;23;20078;-85
2022/12/19 10:31:31;;;;;;;36.17;21.70;;;7.40;99.90;;;;;;6022508;23;20393;-84
2022/12/19 10:34:22;;;;;;;42.53;23.30;;;7.40;99.90;;;;;;6000304;23;20019;-84
2022/12/19 10:36:56;;;;;;;35.47;21.85;;;7.40;99.90;;;;;;5999340;23;20023;-84
2022/12/19 10:39:25;;;;;;;38.85;21.95;;;7.50;99.90;;;;;;6022170;23;20070;-85
2022/12/19 10:41:55;;;;;;;34.75;20.55;;;7.50;99.90;;;;;;6022982;23;20512;-85
2022/12/19 10:44:23;;;;;;;34.40;20.35;;;7.60;99.90;;;;;;5997379;23;20019;-85
2022/12/19 10:46:49;;;;;;;36.42;21.48;;;7.60;99.90;;;;;;6000294;23;20020;-84
2022/12/19 10:49:23;;;;;;;35.22;22.05;;;7.70;99.90;;;;;;6001380;23;20012;-85
2022/12/19 10:52:03;;;;;;;32.53;20.80;;;7.60;99.90;;;;;;6001336;23;20828;-85
2022/12/19 10:54:38;;;;;;;32.50;19.65;;;7.70;99.90;;;;;;6000578;23;20015;-84
2022/12/19 10:57:17;;;;;;;;;;;7.80;99.90;;;;;;6027197;23;20023;-85
2022/12/19 10:59:54;;;;;;;33.80;19.58;;;7.80;99.90;;;;;;6047399;23;19941;-84
2022/12/19 11:02:47;;;;;;;30.48;19.55;;;7.80;99.90;;;;;;6026113;23;20027;-85
2022/12/19 11:05:44;;;;;;;36.97;23.35;;;7.80;99.90;;;;;;5997149;23;20411;-85
2022/12/19 11:08:14;;;;;;;28.35;18.10;;;7.80;99.90;;;;;;6000247;23;20038;-84
2022/12/19 11:10:45;;;;;;;31.58;20.75;;;7.80;99.90;;;;;;6024688;23;20020;-84
2022/12/19 11:13:27;;;;;;;33.35;19.95;;;7.80;99.90;;;;;;6025090;23;20369;-85
2022/12/19 11:15:57;;;;;;;29.73;18.67;;;7.80;99.90;;;;;;6021523;23;20042;-85
2022/12/19 11:18:33;;;;;;;29.05;18.75;;;7.80;99.90;;;;;;6024943;23;20015;-85
2022/12/19 11:21:13;;;;;;;29.98;18.50;;;7.80;99.90;;;;;;6000232;23;20019;-85
2022/12/19 11:23:54;;;;;;;31.48;19.17;;;7.90;99.90;;;;;;6000597;23;20019;-85
2022/12/19 11:26:38;;;;;;;25.77;17.50;;;7.80;99.90;;;;;;6023792;23;20457;-85
2022/12/19 11:29:22;;;;;;;29.33;18.98;;;7.90;99.90;;;;;;6022237;23;20528;-85
2022/12/19 11:31:58;;;;;;;30.45;18.70;;;7.90;99.90;;;;;;6000542;23;20038;-84
2022/12/19 11:34:27;;;;;;;29.33;18.73;;;7.90;99.90;;;;;;6000232;23;20034;-84
2022/12/19 11:37:06;;;;;;;28.40;17.42;;;8.00;99.90;;;;;;6000371;23;20558;-84
2022/12/19 11:39:40;;;;;;;29.52;18.02;;;8.10;99.90;;;;;;6023222;23;20278;-85
2022/12/19 11:42:32;;;;;;;26.33;16.75;;;8.00;99.90;;;;;;6024813;23;20453;-85
2022/12/19 11:45:13;;;;;;;24.25;17.00;;;8.10;99.90;;;;;;6022362;23;20023;-84
2022/12/19 11:47:41;;;;;;;28.75;17.02;;;8.20;99.90;;;;;;6000447;23;20026;-85
2022/12/19 11:50:23;;;;;;;28.10;17.83;;;8.20;99.90;;;;;;6023547;23;20019;-85
2022/12/19 11:53:29;;;;;;;25.70;17.15;;;8.20;99.90;;;;;;6000721;23;20045;-85
2022/12/19 11:55:57;;;;;;;22.15;15.38;;;8.30;99.90;;;;;;6023678;23;20019;-85
2022/12/19 11:58:28;;;;;;;26.05;16.63;;;8.40;99.90;;;;;;6000783;23;20019;-85
2022/12/19 12:01:04;;;;;;;26.10;16.75;;;8.40;99.90;;;;;;6020870;23;20023;-85
2022/12/19 12:03:43;;;;;;;23.73;15.98;;;8.40;99.90;;;;;;6002054;23;20023;-85
2022/12/19 12:06:14;;;;;;;27.00;16.17;;;8.40;99.90;;;;;;6000642;23;20382;-84
2022/12/19 12:09:03;;;;;;;26.95;15.95;;;8.40;99.90;;;;;;5976717;23;20430;-86
2022/12/19 12:11:37;;;;;;;24.83;15.18;;;8.50;99.90;;;;;;6000160;23;20023;-85
2022/12/19 12:14:26;;;;;;;21.10;14.68;;;8.50;99.90;;;;;;5998163;23;20600;-84
2022/12/19 12:17:19;;;;;;;19.02;14.05;;;8.50;99.90;;;;;;5975612;23;20055;-86
2022/12/19 12:20:17;;;;;;;21.00;14.45;;;8.50;99.90;;;;;;6000309;23;20023;-86
2022/12/19 12:22:42;;;;;;;20.60;14.18;;;8.40;99.90;;;;;;5999294;23;20097;-85
2022/12/19 12:25:23;;;;;;;19.02;13.65;;;8.50;99.90;;;;;;5999067;23;20019;-85
2022/12/19 12:28:09;;;;;;;19.08;14.30;;;8.50;99.90;;;;;;6000670;23;20319;-85
2022/12/19 12:30:55;;;;;;;;;;;8.50;99.90;;;;;;5999081;23;20011;-84
2022/12/19 12:33:42;;;;;;;20.52;14.50;;;8.60;99.90;;;;;;6000371;23;20264;-85
2022/12/19 12:36:26;;;;;;;20.88;13.77;;;8.60;99.90;;;;;;6000425;23;20814;-86
2022/12/19 12:39:11;;;;;;;19.73;13.65;;;8.60;99.90;;;;;;6000123;23;20091;-86
2022/12/19 12:44:25;;;;;;;20.45;13.82;;;8.70;99.90;;;;;;6045098;23;19918;-86
2022/12/19 12:47:17;;;;;;;19.30;14.50;;;8.60;99.90;;;;;;5975489;23;20015;-85
2022/12/19 12:49:53;;;;;;;23.17;15.18;;;8.60;99.90;;;;;;5976004;23;20015;-85
2022/12/19 12:52:41;;;;;;;19.52;14.77;;;8.60;99.90;;;;;;5999707;23;20015;-86
2022/12/19 12:55:36;;;;;;;21.77;14.75;;;8.60;99.90;;;;;;6000021;23;20438;-85
2022/12/19 12:58:02;;;;;;;20.08;14.25;;;8.60;99.90;;;;;;6000688;23;20011;-85
2022/12/19 13:00:34;;;;;;;19.27;13.35;;;8.60;99.90;;;;;;5976146;23;20298;-85
2022/12/19 13:03:11;;;;;;;17.35;13.55;;;8.60;99.90;;;;;;6001354;23;20027;-86
2022/12/19 13:05:42;;;;;;;21.50;14.43;;;8.60;99.90;;;;;;6001749;23;20366;-86
2022/12/19 13:08:32;;;;;;;17.65;13.15;;;8.60;99.90;;;;;;5998629;23;20102;-85
2022/12/19 13:11:01;;;;;;;16.73;12.45;;;8.60;99.90;;;;;;6001754;23;20102;-87